createdAt,value
2018-09-01T00:00:01.114Z,13.33
2018-09-01T00:02:28.141Z,19.30
2018-09-01T00:04:55.108Z,15.33
2018-09-01T00:07:22.205Z,16.23
2018-09-01T00:09:49.284Z,11.73
2018-09-01T00:12:16.273Z,28.53
2018-09-01T00:14:43.299Z,10.73
2018-09-01T00:17:14.888Z,31.07
2018-09-01T00:19:41.879Z,19.90
2018-09-01T00:22:08.874Z,18.10
2018-09-01T00:24:35.935Z,15.00
2018-09-01T00:27:03.015Z,26.93
2018-09-01T00:29:30.007Z,24.63
2018-09-01T00:31:57.025Z,15.57
2018-09-01T00:34:23.998Z,19.60
2018-09-01T00:36:50.991Z,17.13
2018-09-01T00:39:18.155Z,12.60
2018-09-01T00:41:45.152Z,18.57
2018-09-01T00:44:12.124Z,17.27
2018-09-01T00:46:39.118Z,29.97
2018-09-01T00:49:06.091Z,17.07
2018-09-01T00:51:33.156Z,20.10
2018-09-01T00:54:00.163Z,19.33
2018-09-01T00:56:27.227Z,21.20
2018-09-01T00:58:54.188Z,20.50
2018-09-01T01:01:21.175Z,26.90
2018-09-01T01:03:48.139Z,25.70
2018-09-01T01:06:15.143Z,30.90
2018-09-01T01:08:42.124Z,23.20
2018-09-01T01:11:09.124Z,13.17
2018-09-01T01:13:36.189Z,23.20
2018-09-01T01:16:03.184Z,14.80
2018-09-01T01:18:30.467Z,30.33
2018-09-01T01:20:57.519Z,24.60
2018-09-01T01:23:24.588Z,21.90
2018-09-01T01:25:52.193Z,19.20
2018-09-01T01:28:19.202Z,24.80
2018-09-01T01:30:46.279Z,18.20
2018-09-01T01:33:13.267Z,23.83
2018-09-01T01:35:40.231Z,23.07
2018-09-01T01:38:07.200Z,21.70
2018-09-01T01:40:34.207Z,27.00
2018-09-01T01:43:01.329Z,19.53
2018-09-01T01:45:29.479Z,17.60
2018-09-01T01:47:57.180Z,20.83
2018-09-01T01:50:24.253Z,21.80
2018-09-01T01:52:51.245Z,22.30
2018-09-01T01:55:18.539Z,22.40
2018-09-01T01:57:48.575Z,30.87
2018-09-01T02:00:15.555Z,32.60
2018-09-01T02:02:42.567Z,24.03
2018-09-01T02:05:14.140Z,17.07
2018-09-01T02:07:41.332Z,19.23
2018-09-01T02:10:08.607Z,17.10
2018-09-01T02:12:35.661Z,18.30
2018-09-01T02:15:02.796Z,17.90
2018-09-01T02:17:29.841Z,26.47
2018-09-01T02:19:56.812Z,19.47
2018-09-01T02:22:23.788Z,19.03
2018-09-01T02:24:50.866Z,20.37
2018-09-01T02:27:17.863Z,16.97
2018-09-01T02:29:44.835Z,22.57
2018-09-01T02:32:11.891Z,30.03
2018-09-01T02:34:38.872Z,25.03
2018-09-01T02:37:05.844Z,27.87
2018-09-01T02:39:32.827Z,36.13
2018-09-01T02:41:59.799Z,27.50
2018-09-01T02:44:27.030Z,27.00
2018-09-01T02:46:54.177Z,24.40
2018-09-01T02:49:21.276Z,22.87
2018-09-01T02:51:48.607Z,25.57
2018-09-01T02:54:15.577Z,25.67
2018-09-01T02:56:42.603Z,22.97
2018-09-01T02:59:10.328Z,19.23
2018-09-01T03:01:37.352Z,21.87
2018-09-01T03:04:05.174Z,17.50
2018-09-01T03:06:44.407Z,20.97
2018-09-01T03:09:11.451Z,21.13
2018-09-01T03:11:38.465Z,19.20
2018-09-01T03:14:05.580Z,16.53
2018-09-01T03:16:32.925Z,14.60
2018-09-01T03:18:59.908Z,17.40
2018-09-01T03:21:27.412Z,22.03
2018-09-01T03:23:54.477Z,25.20
2018-09-01T03:26:21.447Z,23.97
2018-09-01T03:28:48.450Z,28.57
2018-09-01T03:31:15.416Z,21.00
2018-09-01T03:33:42.406Z,31.83
2018-09-01T03:36:09.375Z,27.70
2018-09-01T03:38:36.427Z,25.23
2018-09-01T03:41:03.683Z,19.13
2018-09-01T03:43:30.741Z,30.30
2018-09-01T03:45:57.744Z,20.93
2018-09-01T03:48:24.740Z,19.87
2018-09-01T03:50:51.813Z,33.30
2018-09-01T03:53:18.835Z,28.10
2018-09-01T03:55:45.811Z,24.23
2018-09-01T03:58:13.073Z,19.70
2018-09-01T04:00:40.196Z,28.33
2018-09-01T04:03:07.164Z,30.17
2018-09-01T04:05:34.667Z,30.80
2018-09-01T04:08:01.649Z,42.67
2018-09-01T04:10:28.739Z,27.53
2018-09-01T04:12:56.011Z,27.23
2018-09-01T04:15:22.981Z,29.27
2018-09-01T04:17:49.999Z,42.33
2018-09-01T04:20:17.277Z,26.00
2018-09-01T04:22:44.407Z,31.87
2018-09-01T04:25:11.466Z,35.73
2018-09-01T04:27:38.822Z,35.37
2018-09-01T04:30:06.132Z,29.43
2018-09-01T04:32:33.133Z,38.03
2018-09-01T04:35:00.464Z,39.37
2018-09-01T04:37:27.423Z,49.83
2018-09-01T04:39:54.488Z,31.80
2018-09-01T04:42:21.591Z,32.10
2018-09-01T04:44:48.648Z,32.67
2018-09-01T04:47:15.724Z,44.17
2018-09-01T04:49:42.720Z,34.10
2018-09-01T04:52:09.907Z,39.33
2018-09-01T04:54:36.888Z,38.47
2018-09-01T04:57:04.219Z,46.03
2018-09-01T04:59:31.215Z,39.90
2018-09-01T05:01:58.248Z,50.33
2018-09-01T05:04:25.252Z,42.57
2018-09-01T05:06:52.227Z,40.73
2018-09-01T05:09:19.293Z,48.40
2018-09-01T05:11:46.583Z,80.13
2018-09-01T05:14:13.561Z,48.70
2018-09-01T05:16:40.576Z,48.23
2018-09-01T05:19:07.818Z,45.07
2018-09-01T05:21:34.807Z,36.10
2018-09-01T05:24:01.966Z,46.60
2018-09-01T05:26:28.983Z,34.20
2018-09-01T05:28:56.003Z,34.83
2018-09-01T05:31:22.977Z,58.03
2018-09-01T05:33:50.200Z,42.73
2018-09-01T05:36:17.175Z,48.10
2018-09-01T05:38:44.232Z,47.90
2018-09-01T05:41:11.301Z,47.67
2018-09-01T05:43:38.304Z,49.90
2018-09-01T05:46:05.401Z,45.33
2018-09-01T05:48:32.464Z,52.70
2018-09-01T05:50:59.444Z,44.13
2018-09-01T05:53:26.437Z,54.87
2018-09-01T05:55:53.401Z,50.13
2018-09-01T05:58:20.363Z,50.77
2018-09-01T06:00:49.162Z,61.47
2018-09-01T06:03:16.611Z,51.30
2018-09-01T06:05:43.955Z,44.23
2018-09-01T06:08:11.052Z,52.33
2018-09-01T06:10:38.027Z,39.47
2018-09-01T06:13:05.172Z,46.73
2018-09-01T06:15:32.462Z,38.50
2018-09-01T06:17:59.492Z,41.80
2018-09-01T06:20:26.451Z,66.17
2018-09-01T06:22:53.617Z,45.90
2018-09-01T06:25:20.682Z,52.73
2018-09-01T06:27:49.883Z,44.47
2018-09-01T06:30:21.086Z,57.20
2018-09-01T06:32:48.337Z,37.23
2018-09-01T06:35:15.313Z,39.83
2018-09-01T06:37:42.369Z,111.10
2018-09-01T06:40:09.439Z,32.87
2018-09-01T06:42:36.412Z,42.20
2018-09-01T06:45:03.494Z,36.50
2018-09-01T06:47:30.651Z,30.33
2018-09-01T06:49:57.988Z,27.73
2018-09-01T06:52:25.047Z,36.80
2018-09-01T06:54:52.025Z,33.87
2018-09-01T06:57:19.255Z,51.80
2018-09-01T06:59:46.228Z,37.10
2018-09-01T07:02:13.199Z,32.23
2018-09-01T07:04:40.251Z,26.83
2018-09-01T07:07:07.239Z,30.10
2018-09-01T07:09:34.239Z,32.97
2018-09-01T07:12:01.209Z,34.90
2018-09-01T07:14:28.199Z,28.60
2018-09-01T07:16:55.168Z,31.63
2018-09-01T07:19:22.146Z,46.20
2018-09-01T07:21:49.155Z,20.97
2018-09-01T07:24:16.128Z,16.47
2018-09-01T07:26:43.389Z,20.70
2018-09-01T07:29:10.419Z,36.80
2018-09-01T07:31:37.700Z,23.97
2018-09-01T07:34:04.464Z,33.00
2018-09-01T07:36:31.444Z,23.90
2018-09-01T07:38:58.616Z,28.73
2018-09-01T07:41:25.924Z,31.03
2018-09-01T07:43:52.896Z,34.27
2018-09-01T07:46:19.988Z,27.70
2018-09-01T07:48:47.172Z,24.17
2018-09-01T07:51:14.232Z,25.70
2018-09-01T07:53:41.212Z,20.73
2018-09-01T07:56:08.310Z,28.07
2018-09-01T07:58:35.237Z,58.40
2018-09-01T08:01:02.375Z,25.87
2018-09-01T08:03:29.716Z,65.60
2018-09-01T08:05:56.720Z,35.87
2018-09-01T08:08:24.007Z,52.03
2018-09-01T08:10:51.184Z,45.03
2018-09-01T08:13:18.199Z,21.40
2018-09-01T08:15:45.190Z,17.67
2018-09-01T08:18:12.165Z,20.40
2018-09-01T08:20:39.159Z,22.40
2018-09-01T08:23:06.208Z,16.07
2018-09-01T08:25:33.255Z,19.63
2018-09-01T08:28:00.251Z,33.70
2018-09-01T08:30:27.468Z,16.57
2018-09-01T08:32:54.807Z,22.30
2018-09-01T08:35:21.787Z,17.23
2018-09-01T08:37:49.166Z,18.87
2018-09-01T08:40:16.298Z,12.33
2018-09-01T08:42:43.324Z,35.63
2018-09-01T08:45:10.439Z,8.90
2018-09-01T08:47:37.568Z,12.90
2018-09-01T08:50:04.948Z,17.87
2018-09-01T08:52:32.048Z,13.77
2018-09-01T08:54:59.144Z,15.67
2018-09-01T08:57:26.127Z,11.80
2018-09-01T08:59:53.436Z,12.07
2018-09-01T09:02:20.410Z,16.10
2018-09-01T09:04:47.461Z,16.03
2018-09-01T09:07:14.893Z,12.90
2018-09-01T09:09:41.996Z,9.87
2018-09-01T09:12:08.975Z,12.70
2018-09-01T09:14:36.327Z,9.83
2018-09-01T09:17:03.370Z,8.80
2018-09-01T09:19:30.408Z,8.13
2018-09-01T09:21:57.676Z,10.40
2018-09-01T09:24:24.663Z,7.67
2018-09-01T09:26:51.646Z,6.90
2018-09-01T09:29:18.649Z,9.33
2018-09-01T09:31:45.716Z,10.30
2018-09-01T09:34:12.712Z,5.37
2018-09-01T09:36:40.057Z,6.27
2018-09-01T09:39:08.124Z,6.90
2018-09-01T09:41:35.110Z,9.77
2018-09-01T09:44:02.116Z,6.03
2018-09-01T09:46:29.101Z,10.10
2018-09-01T09:48:56.243Z,10.60
2018-09-01T09:51:23.571Z,6.57
2018-09-01T09:53:50.561Z,5.70
2018-09-01T09:56:17.540Z,4.70
2018-09-01T09:58:44.827Z,4.73
2018-09-01T10:01:17.520Z,5.40
2018-09-01T10:03:44.782Z,4.20
2018-09-01T10:06:11.770Z,5.37
2018-09-01T10:08:38.848Z,5.13
2018-09-01T10:11:05.986Z,4.73
2018-09-01T10:13:32.902Z,4.13
2018-09-01T10:15:59.952Z,5.73
2018-09-01T10:18:26.973Z,6.60
2018-09-01T10:20:54.060Z,4.93
2018-09-01T10:23:21.325Z,4.83
2018-09-01T10:25:48.423Z,6.03
2018-09-01T10:28:15.419Z,5.60
2018-09-01T10:30:42.488Z,3.43
2018-09-01T10:33:09.474Z,2.50
2018-09-01T10:35:36.564Z,3.10
2018-09-01T10:38:03.695Z,5.60
2018-09-01T10:40:30.685Z,4.97
2018-09-01T10:42:57.675Z,6.03
2018-09-01T10:45:24.751Z,2.30
2018-09-01T10:47:51.861Z,2.80
2018-09-01T10:50:18.839Z,3.87
2018-09-01T10:52:46.106Z,3.37
2018-09-01T10:55:13.167Z,2.37
2018-09-01T10:57:40.292Z,2.23
2018-09-01T11:00:07.961Z,2.67
2018-09-01T11:02:34.951Z,4.00
2018-09-01T11:05:02.129Z,2.50
2018-09-01T11:07:29.150Z,4.00
2018-09-01T11:09:56.172Z,2.70
2018-09-01T11:12:23.598Z,2.77
2018-09-01T11:14:50.699Z,3.07
2018-09-01T11:17:17.793Z,4.27
2018-09-01T11:19:44.819Z,4.90
2018-09-01T11:22:12.395Z,4.13
2018-09-01T11:24:39.391Z,3.10
2018-09-01T11:27:06.396Z,2.17
2018-09-01T11:29:33.543Z,2.80
2018-09-01T11:32:00.580Z,2.93
2018-09-01T11:34:27.641Z,4.67
2018-09-01T11:36:54.916Z,2.17
2018-09-01T11:39:22.060Z,2.70
2018-09-01T11:41:49.161Z,3.50
2018-09-01T11:44:16.236Z,3.43
2018-09-01T11:46:43.285Z,2.30
2018-09-01T11:49:11.061Z,3.77
2018-09-01T11:51:38.069Z,2.27
2018-09-01T11:54:05.425Z,2.77
2018-09-01T11:56:32.563Z,2.50
2018-09-01T11:58:59.526Z,3.00
2018-09-01T12:01:26.521Z,2.80
2018-09-01T12:03:53.689Z,3.03
2018-09-01T12:06:20.676Z,2.17
2018-09-01T12:08:47.740Z,3.87
2018-09-01T12:11:14.762Z,2.40
2018-09-01T12:13:41.745Z,2.97
2018-09-01T12:16:08.793Z,2.57
2018-09-01T12:18:35.776Z,2.53
2018-09-01T12:21:02.999Z,2.50
2018-09-01T12:23:29.984Z,2.53
2018-09-01T12:25:57.056Z,2.43
2018-09-01T12:28:24.082Z,2.00
2018-09-01T12:30:51.151Z,2.10
2018-09-01T12:33:18.212Z,2.97
2018-09-01T12:35:45.248Z,3.33
2018-09-01T12:38:12.637Z,1.97
2018-09-01T12:40:39.691Z,2.83
2018-09-01T12:43:06.720Z,2.27
2018-09-01T12:45:33.760Z,5.57
2018-09-01T12:48:00.803Z,1.97
2018-09-01T12:50:27.811Z,1.57
2018-09-01T12:52:54.974Z,1.90
2018-09-01T12:55:21.981Z,2.27
2018-09-01T12:57:48.984Z,9.40
2018-09-01T13:00:16.090Z,3.63
2018-09-01T13:02:43.179Z,2.90
2018-09-01T13:05:10.351Z,2.70
2018-09-01T13:07:37.408Z,3.50
2018-09-01T13:10:04.479Z,2.97
2018-09-01T13:12:31.888Z,4.83
2018-09-01T13:14:58.868Z,1.80
2018-09-01T13:17:25.983Z,3.10
2018-09-01T13:19:52.962Z,3.20
2018-09-01T13:22:19.946Z,8.53
2018-09-01T13:24:46.944Z,4.37
2018-09-01T13:27:13.951Z,2.33
2018-09-01T13:29:41.024Z,2.53
2018-09-01T13:32:08.119Z,2.97
2018-09-01T13:34:35.248Z,7.97
2018-09-01T13:37:02.323Z,5.03
2018-09-01T13:39:29.704Z,2.70
2018-09-01T13:41:56.715Z,2.80
2018-09-01T13:44:23.695Z,2.20
2018-09-01T13:46:50.764Z,4.90
2018-09-01T13:49:17.888Z,4.03
2018-09-01T13:51:44.875Z,2.13
2018-09-01T13:54:11.856Z,3.70
2018-09-01T13:56:39.144Z,6.13
2018-09-01T13:59:06.133Z,2.70
2018-09-01T14:01:33.126Z,3.00
2018-09-01T14:04:00.380Z,3.63
2018-09-01T14:06:27.451Z,2.63
2018-09-01T14:08:54.443Z,1.93
2018-09-01T14:11:21.464Z,3.37
2018-09-01T14:13:48.547Z,1.70
2018-09-01T14:16:15.549Z,3.07
2018-09-01T14:18:42.644Z,2.27
2018-09-01T14:21:09.771Z,6.13
2018-09-01T14:23:36.711Z,5.83
2018-09-01T14:26:03.704Z,2.37
2018-09-01T14:28:30.766Z,3.77
2018-09-01T14:30:57.755Z,2.70
2018-09-01T14:33:24.734Z,2.40
2018-09-01T14:35:51.872Z,4.60
2018-09-01T14:38:19.150Z,2.33
2018-09-01T14:40:46.132Z,4.40
2018-09-01T14:43:13.134Z,4.10
2018-09-01T14:45:40.104Z,3.30
2018-09-01T14:48:07.280Z,6.97
2018-09-01T14:50:34.479Z,3.73
2018-09-01T14:53:01.496Z,2.13
2018-09-01T14:55:28.577Z,2.60
2018-09-01T14:57:55.621Z,3.60
2018-09-01T15:00:22.607Z,5.17
2018-09-01T15:02:49.576Z,3.73
2018-09-01T15:05:16.612Z,5.93
2018-09-01T15:07:43.603Z,3.17
2018-09-01T15:10:10.606Z,3.43
2018-09-01T15:12:37.640Z,4.83
2018-09-01T15:15:04.692Z,7.23
2018-09-01T15:17:31.671Z,2.80
2018-09-01T15:19:58.661Z,3.63
2018-09-01T15:22:25.987Z,4.13
2018-09-01T15:24:53.054Z,2.47
2018-09-01T15:27:20.058Z,4.50
2018-09-01T15:29:47.055Z,3.80
2018-09-01T15:32:14.024Z,2.73
2018-09-01T15:34:41.323Z,3.13
2018-09-01T15:37:08.300Z,4.47
2018-09-01T15:39:35.274Z,7.83
2018-09-01T15:42:02.572Z,7.33
2018-09-01T15:44:29.595Z,1.50
2018-09-01T15:46:56.588Z,4.33
2018-09-01T15:49:23.667Z,2.07
2018-09-01T15:51:50.691Z,2.13
2018-09-01T15:54:17.699Z,7.50
2018-09-01T15:56:44.999Z,4.80
2018-09-01T15:59:12.383Z,2.90
2018-09-01T16:01:39.439Z,3.80
2018-09-01T16:04:06.435Z,2.53
2018-09-01T16:06:33.447Z,4.60
2018-09-01T16:09:00.627Z,2.87
2018-09-01T16:11:27.593Z,7.00
2018-09-01T16:13:54.656Z,4.37
2018-09-01T16:16:21.657Z,4.30
2018-09-01T16:18:48.648Z,2.70
2018-09-01T16:21:15.731Z,2.17
2018-09-01T16:23:42.780Z,6.17
2018-09-01T16:26:09.776Z,2.10
2018-09-01T16:28:36.845Z,3.97
2018-09-01T16:31:03.865Z,4.67
2018-09-01T16:33:30.936Z,4.30
2018-09-01T16:35:57.910Z,2.73
2018-09-01T16:38:24.960Z,1.80
2018-09-01T16:40:52.059Z,3.53
2018-09-01T16:43:19.131Z,5.27
2018-09-01T16:45:46.273Z,1.43
2018-09-01T16:48:13.265Z,9.27
2018-09-01T16:50:40.243Z,4.67
2018-09-01T16:53:07.295Z,3.00
2018-09-01T16:55:34.393Z,4.40
2018-09-01T16:58:01.653Z,2.90
2018-09-01T17:00:28.658Z,6.50
2018-09-01T17:02:55.708Z,3.53
2018-09-01T17:05:22.702Z,3.30
2018-09-01T17:07:49.703Z,2.33
2018-09-01T17:10:16.700Z,3.67
2018-09-01T17:12:43.772Z,5.60
2018-09-01T17:15:10.820Z,1.60
2018-09-01T17:17:37.841Z,2.10
2018-09-01T17:20:05.056Z,6.40
2018-09-01T17:22:32.022Z,7.20
2018-09-01T17:24:59.008Z,5.93
2018-09-01T17:27:25.987Z,2.60
2018-09-01T17:29:53.055Z,3.00
2018-09-01T17:32:20.219Z,5.90
2018-09-01T17:34:47.303Z,4.70
2018-09-01T17:37:14.377Z,6.10
2018-09-01T17:39:41.759Z,3.67
2018-09-01T17:42:08.745Z,3.80
2018-09-01T17:44:35.720Z,6.53
2018-09-01T17:47:02.908Z,8.73
2018-09-01T17:49:29.997Z,15.60
2018-09-01T17:51:57.018Z,5.97
2018-09-01T17:54:24.208Z,8.50
2018-09-01T17:56:51.234Z,6.67
2018-09-01T17:59:18.223Z,10.63
2018-09-01T18:01:45.583Z,4.30
2018-09-01T18:04:12.635Z,6.63
2018-09-01T18:06:39.659Z,5.00
2018-09-01T18:09:07.112Z,2.90
2018-09-01T18:11:34.624Z,6.30
2018-09-01T18:14:01.655Z,4.17
2018-09-01T18:16:28.685Z,3.43
2018-09-01T18:18:55.636Z,3.30
2018-09-01T18:21:22.891Z,3.40
2018-09-01T18:23:49.875Z,4.60
2018-09-01T18:26:16.850Z,3.67
2018-09-01T18:28:43.928Z,4.83
2018-09-01T18:31:10.996Z,15.67
2018-09-01T18:33:37.992Z,10.43
2018-09-01T18:36:05.123Z,6.60
2018-09-01T18:38:32.119Z,7.23
2018-09-01T18:40:59.263Z,41.97
2018-09-01T18:43:26.364Z,17.10
2018-09-01T18:45:53.435Z,7.10
2018-09-01T18:48:20.435Z,6.67
2018-09-01T18:50:47.414Z,7.37
2018-09-01T18:53:14.920Z,8.67
2018-09-01T18:55:41.895Z,4.50
2018-09-01T18:58:09.041Z,11.27
2018-09-01T19:00:36.090Z,4.57
2018-09-01T19:03:03.121Z,6.70
2018-09-01T19:05:30.380Z,4.97
2018-09-01T19:07:57.365Z,12.27
2018-09-01T19:10:24.510Z,5.33
2018-09-01T19:12:51.672Z,6.80
2018-09-01T19:15:18.657Z,6.97
2018-09-01T19:17:45.630Z,3.50
2018-09-01T19:20:12.619Z,3.10
2018-09-01T19:22:39.606Z,4.97
2018-09-01T19:25:06.980Z,3.10
2018-09-01T19:27:34.252Z,5.50
2018-09-01T19:30:01.236Z,3.93
2018-09-01T19:35:08.135Z,31.07
2018-09-01T19:37:35.100Z,23.07
2018-09-01T19:40:02.091Z,6.77
2018-09-01T19:42:29.115Z,39.90
2018-09-01T19:44:56.174Z,21.50
2018-09-01T19:47:23.100Z,4.60
2018-09-01T19:49:50.101Z,9.90
2018-09-01T19:52:17.103Z,12.27
2018-09-01T19:54:44.082Z,50.23
2018-09-01T19:57:11.071Z,30.53
2018-09-01T19:59:38.041Z,34.93
2018-09-01T20:02:05.339Z,76.87
2018-09-01T20:04:32.372Z,3.53
2018-09-01T20:06:59.332Z,6.67
2018-09-01T20:09:26.314Z,4.30
2018-09-01T20:11:53.632Z,65.83
2018-09-01T20:14:20.696Z,30.53
2018-09-01T20:16:48.611Z,6.40
2018-09-01T20:19:15.608Z,4.30
2018-09-01T20:21:42.931Z,6.10
2018-09-01T20:24:10.235Z,6.40
2018-09-01T20:26:37.270Z,7.57
2018-09-01T20:29:11.223Z,14.63
2018-09-01T20:31:38.240Z,26.13
2018-09-01T20:34:05.238Z,7.23
2018-09-01T20:36:32.223Z,6.23
2018-09-01T20:38:59.347Z,30.90
2018-09-01T20:41:26.343Z,15.77
2018-09-01T20:43:53.403Z,7.67
2018-09-01T20:46:20.997Z,8.47
2018-09-01T20:48:47.987Z,22.73
2018-09-01T20:51:14.960Z,21.07
2018-09-01T20:53:42.560Z,26.23
2018-09-01T20:56:09.612Z,19.13
2018-09-01T20:58:36.587Z,12.60
2018-09-01T21:01:03.582Z,13.53
2018-09-01T21:03:30.559Z,12.20
2018-09-01T21:05:57.547Z,11.70
2018-09-01T21:08:24.820Z,8.33
2018-09-01T21:10:51.815Z,9.13
2018-09-01T21:13:18.802Z,6.10
2018-09-01T21:15:45.968Z,20.27
2018-09-01T21:18:12.982Z,20.30
2018-09-01T21:20:40.043Z,10.83
2018-09-01T21:23:07.119Z,10.17
2018-09-01T21:25:34.099Z,52.37
2018-09-01T21:28:01.188Z,14.03
2018-09-01T21:30:28.179Z,5.67
2018-09-01T21:32:55.158Z,5.47
2018-09-01T21:35:22.148Z,7.37
2018-09-01T21:37:49.504Z,7.20
2018-09-01T21:40:16.482Z,7.47
2018-09-01T21:42:43.459Z,6.57
2018-09-01T21:45:10.532Z,9.80
2018-09-01T21:47:37.579Z,7.27
2018-09-01T21:50:04.991Z,7.27
2018-09-01T21:52:32.023Z,13.00
2018-09-01T21:54:59.306Z,9.03
2018-09-01T21:57:26.347Z,8.77
2018-09-01T21:59:53.480Z,9.23
2018-09-01T22:02:22.960Z,6.57
2018-09-01T22:04:56.003Z,9.13
2018-09-01T22:07:23.015Z,11.03
2018-09-01T22:09:51.247Z,11.30
2018-09-01T22:12:18.700Z,11.07
2018-09-01T22:14:45.958Z,11.93
2018-09-01T22:17:12.953Z,14.70
2018-09-01T22:19:39.916Z,17.20
2018-09-01T22:22:06.898Z,12.63
2018-09-01T22:24:33.936Z,21.30
2018-09-01T22:27:00.922Z,17.87
2018-09-01T22:29:27.923Z,26.80
2018-09-01T22:31:54.886Z,17.20
2018-09-01T22:34:21.864Z,14.23
2018-09-01T22:36:48.948Z,21.20
2018-09-01T22:39:15.931Z,26.93
2018-09-01T22:41:42.935Z,37.60
2018-09-01T22:44:09.994Z,19.73
2018-09-01T22:46:37.239Z,21.30
2018-09-01T22:49:04.422Z,17.83
2018-09-01T22:51:31.476Z,54.53
2018-09-01T22:53:58.472Z,27.93
2018-09-01T22:56:25.524Z,72.13
2018-09-01T22:58:52.544Z,81.60
2018-09-01T23:01:19.524Z,30.20
2018-09-01T23:03:46.587Z,22.97
2018-09-01T23:06:13.568Z,25.03
2018-09-01T23:08:40.642Z,36.87
2018-09-01T23:11:07.624Z,21.23
2018-09-01T23:13:34.627Z,25.73
2018-09-01T23:16:01.616Z,48.70
2018-09-01T23:18:28.695Z,22.30
2018-09-01T23:20:55.708Z,25.97
2018-09-01T23:23:22.708Z,21.47
2018-09-01T23:25:49.848Z,15.00
2018-09-01T23:28:16.828Z,18.03
2018-09-01T23:30:43.892Z,18.50
2018-09-01T23:33:10.960Z,20.37
2018-09-01T23:35:38.023Z,21.33
2018-09-01T23:38:05.119Z,17.97
2018-09-01T23:40:32.312Z,19.97
2018-09-01T23:42:59.353Z,27.33
2018-09-01T23:45:26.412Z,63.53
2018-09-01T23:47:53.850Z,41.73
2018-09-01T23:50:20.830Z,23.60
2018-09-01T23:52:47.831Z,19.70
2018-09-01T23:55:15.060Z,20.30
2018-09-01T23:57:42.039Z,14.57
